createdAt,value
2018-04-30T00:01:10.349Z,23.43
2018-04-30T00:03:38.597Z,15.40
2018-04-30T00:06:08.181Z,14.67
2018-04-30T00:08:36.435Z,15.57
2018-04-30T00:11:04.722Z,17.70
2018-04-30T00:13:32.961Z,16.30
2018-04-30T00:16:01.274Z,21.03
2018-04-30T00:18:29.553Z,24.07
2018-04-30T00:20:57.834Z,17.27
2018-04-30T00:23:26.060Z,19.70
2018-04-30T00:25:55.087Z,17.43
2018-04-30T00:28:23.421Z,14.87
2018-04-30T00:30:51.696Z,26.57
2018-04-30T00:33:19.976Z,27.80
2018-04-30T00:35:48.222Z,20.87
2018-04-30T00:38:16.470Z,14.63
2018-04-30T00:40:45.509Z,24.07
2018-04-30T00:43:13.791Z,16.10
2018-04-30T00:45:42.108Z,19.37
2018-04-30T00:48:10.419Z,15.77
2018-04-30T00:50:38.643Z,26.87
2018-04-30T00:53:06.952Z,16.77
2018-04-30T00:55:35.994Z,17.93
2018-04-30T00:58:04.257Z,19.97
2018-04-30T01:00:32.485Z,19.53
2018-04-30T01:03:01.520Z,19.90
2018-04-30T01:05:29.760Z,20.03
2018-04-30T01:07:58.809Z,16.53
2018-04-30T01:10:27.048Z,12.40
2018-04-30T01:12:55.324Z,15.80
2018-04-30T01:15:23.590Z,25.00
2018-04-30T01:17:53.106Z,19.40
2018-04-30T01:20:22.106Z,23.10
2018-04-30T01:22:50.396Z,11.97
2018-04-30T01:25:18.665Z,14.50
2018-04-30T01:27:47.376Z,18.57
2018-04-30T01:30:15.612Z,16.03
2018-04-30T01:32:44.644Z,18.53
2018-04-30T01:35:12.953Z,17.13
2018-04-30T01:37:41.236Z,21.20
2018-04-30T01:40:09.485Z,20.67
2018-04-30T01:42:37.750Z,22.50
2018-04-30T01:45:06.034Z,18.03
2018-04-30T01:47:34.304Z,14.07
2018-04-30T01:50:02.553Z,22.67
2018-04-30T01:52:31.596Z,19.77
2018-04-30T01:54:59.847Z,40.17
2018-04-30T01:57:28.125Z,20.60
2018-04-30T01:59:56.406Z,17.73
2018-04-30T02:02:24.712Z,17.57
2018-04-30T02:04:52.982Z,20.17
2018-04-30T02:07:21.253Z,19.47
2018-04-30T02:09:49.505Z,21.77
2018-04-30T02:12:17.811Z,19.70
2018-04-30T02:14:46.042Z,23.17
2018-04-30T02:17:15.073Z,15.57
2018-04-30T02:19:43.341Z,15.33
2018-04-30T02:22:11.615Z,30.87
2018-04-30T02:24:40.629Z,21.63
2018-04-30T02:27:08.875Z,25.03
2018-04-30T02:29:37.882Z,22.43
2018-04-30T02:32:06.187Z,20.27
2018-04-30T02:34:34.525Z,17.73
2018-04-30T02:37:03.552Z,22.43
2018-04-30T02:39:31.788Z,21.90
2018-04-30T02:42:00.213Z,22.20
2018-04-30T02:44:28.469Z,32.47
2018-04-30T02:46:56.734Z,35.67
2018-04-30T02:49:25.742Z,23.90
2018-04-30T02:51:53.995Z,19.20
2018-04-30T02:54:22.511Z,31.90
2018-04-30T02:56:50.750Z,27.50
2018-04-30T02:59:19.792Z,26.80
2018-04-30T03:01:48.082Z,39.70
2018-04-30T03:04:16.356Z,35.53
2018-04-30T03:06:44.622Z,27.80
2018-04-30T03:09:12.866Z,24.47
2018-04-30T03:11:41.906Z,21.63
2018-04-30T03:14:10.170Z,23.67
2018-04-30T03:16:38.409Z,27.33
2018-04-30T03:19:07.449Z,18.83
2018-04-30T03:21:35.693Z,25.43
2018-04-30T03:24:04.009Z,20.67
2018-04-30T03:26:32.300Z,24.90
2018-04-30T03:29:00.563Z,25.93
2018-04-30T03:31:28.828Z,28.63
2018-04-30T03:33:57.102Z,23.10
2018-04-30T03:36:25.349Z,25.30
2018-04-30T03:38:54.401Z,26.40
2018-04-30T03:41:22.691Z,21.23
2018-04-30T03:43:50.948Z,21.93
2018-04-30T03:46:19.236Z,22.90
2018-04-30T03:48:47.523Z,22.37
2018-04-30T03:51:15.762Z,27.37
2018-04-30T03:53:44.013Z,30.73
2018-04-30T03:56:13.045Z,28.60
2018-04-30T03:58:41.325Z,29.03
2018-04-30T04:01:21.531Z,36.47
2018-04-30T04:04:02.561Z,29.97
2018-04-30T04:06:42.822Z,26.70
2018-04-30T04:09:13.553Z,30.27
2018-04-30T04:11:41.819Z,36.60
2018-04-30T04:14:10.097Z,24.43
2018-04-30T04:16:38.382Z,27.97
2018-04-30T04:19:06.658Z,34.87
2018-04-30T04:21:34.930Z,27.73
2018-04-30T04:24:03.209Z,40.57
2018-04-30T04:26:31.512Z,29.70
2018-04-30T04:28:59.772Z,31.53
2018-04-30T04:31:28.020Z,30.50
2018-04-30T04:33:56.287Z,28.90
2018-04-30T04:36:25.340Z,31.77
2018-04-30T04:38:53.582Z,25.70
2018-04-30T04:41:21.923Z,18.53
2018-04-30T04:43:50.129Z,20.77
2018-04-30T04:46:19.205Z,13.93
2018-04-30T04:48:48.641Z,14.40
2018-04-30T04:51:16.910Z,9.00
2018-04-30T04:53:45.923Z,5.90
2018-04-30T04:56:14.168Z,6.43
2018-04-30T04:58:42.403Z,7.40
2018-04-30T05:01:10.672Z,7.10
2018-04-30T05:03:38.934Z,5.03
2018-04-30T05:06:07.202Z,4.43
2018-04-30T05:08:35.442Z,2.83
2018-04-30T05:11:04.529Z,8.17
2018-04-30T05:13:32.749Z,3.23
2018-04-30T05:16:01.778Z,2.20
2018-04-30T05:18:29.996Z,2.07
2018-04-30T05:20:58.925Z,3.43
2018-04-30T05:23:27.134Z,4.50
2018-04-30T05:25:55.431Z,2.43
2018-04-30T05:28:23.658Z,2.60
2018-04-30T05:30:51.924Z,3.77
2018-04-30T05:33:20.195Z,1.77
2018-04-30T05:35:49.205Z,2.30
2018-04-30T05:38:17.437Z,3.07
2018-04-30T05:40:45.721Z,6.07
2018-04-30T05:43:14.194Z,12.43
2018-04-30T05:45:43.264Z,3.07
2018-04-30T05:48:11.512Z,3.60
2018-04-30T05:50:39.778Z,6.90
2018-04-30T05:53:08.032Z,3.23
2018-04-30T05:55:36.292Z,4.00
2018-04-30T05:58:04.889Z,2.17
2018-04-30T06:00:33.252Z,1.10
2018-04-30T06:03:01.399Z,5.17
2018-04-30T06:05:29.656Z,1.87
2018-04-30T06:07:57.943Z,1.20
2018-04-30T06:10:26.181Z,1.20
2018-04-30T06:12:55.190Z,1.60
2018-04-30T06:15:23.711Z,6.00
2018-04-30T06:17:51.966Z,2.47
2018-04-30T06:20:24.113Z,19.73
2018-04-30T06:22:53.119Z,4.83
2018-04-30T06:25:21.381Z,1.33
2018-04-30T06:27:50.447Z,0.83
2018-04-30T06:30:18.653Z,3.10
2018-04-30T06:32:47.680Z,2.47
2018-04-30T06:35:15.933Z,1.40
2018-04-30T06:37:44.962Z,6.80
2018-04-30T06:40:13.229Z,2.10
2018-04-30T06:42:41.496Z,1.73
2018-04-30T06:45:09.733Z,2.83
2018-04-30T06:47:38.098Z,5.87
2018-04-30T06:50:07.033Z,1.20
2018-04-30T06:52:35.340Z,2.50
2018-04-30T06:55:03.595Z,2.67
2018-04-30T06:57:31.932Z,2.37
2018-04-30T07:00:00.179Z,3.90
2018-04-30T07:02:28.416Z,2.30
2018-04-30T07:04:57.442Z,7.40
2018-04-30T07:07:26.300Z,1.10
2018-04-30T07:09:55.375Z,3.60
2018-04-30T07:12:23.643Z,4.63
2018-04-30T07:14:53.583Z,1.00
2018-04-30T07:17:22.617Z,1.27
2018-04-30T07:19:50.852Z,0.90
2018-04-30T07:22:21.153Z,5.03
2018-04-30T07:24:50.857Z,2.40
2018-04-30T07:27:20.048Z,2.27
2018-04-30T07:29:48.283Z,4.50
2018-04-30T07:32:16.562Z,2.83
2018-04-30T07:34:45.573Z,7.43
2018-04-30T07:37:13.839Z,1.67
2018-04-30T07:39:43.040Z,7.80
2018-04-30T07:42:11.360Z,2.07
2018-04-30T07:44:39.590Z,4.60
2018-04-30T07:47:07.863Z,1.83
2018-04-30T07:49:36.147Z,2.60
2018-04-30T07:52:04.428Z,1.37
2018-04-30T07:54:32.684Z,0.80
2018-04-30T07:57:01.722Z,1.43
2018-04-30T07:59:29.988Z,1.50
2018-04-30T08:01:58.205Z,3.80
2018-04-30T08:04:27.324Z,8.43
2018-04-30T08:06:56.333Z,1.33
2018-04-30T08:09:24.622Z,7.20
2018-04-30T08:11:52.880Z,1.00
2018-04-30T08:14:21.900Z,1.10
2018-04-30T08:16:50.897Z,3.70
2018-04-30T08:19:19.181Z,3.23
2018-04-30T08:21:47.442Z,1.20
2018-04-30T08:24:15.740Z,1.57
2018-04-30T08:26:44.042Z,1.63
2018-04-30T08:29:12.278Z,2.73
2018-04-30T08:31:40.537Z,7.53
2018-04-30T08:34:08.906Z,9.70
2018-04-30T08:36:38.005Z,10.30
2018-04-30T08:39:06.221Z,5.10
2018-04-30T08:41:35.469Z,1.93
2018-04-30T08:44:03.801Z,1.13
2018-04-30T08:46:32.033Z,7.43
2018-04-30T08:49:01.074Z,4.33
2018-04-30T08:51:29.304Z,1.33
2018-04-30T08:53:59.172Z,3.53
2018-04-30T08:56:27.434Z,1.83
2018-04-30T08:58:58.182Z,1.47
2018-04-30T09:01:27.423Z,1.63
2018-04-30T09:03:55.751Z,1.47
2018-04-30T09:06:24.007Z,6.60
2018-04-30T09:08:53.024Z,5.13
2018-04-30T09:11:21.276Z,1.20
2018-04-30T09:13:49.582Z,5.13
2018-04-30T09:16:17.807Z,3.90
2018-04-30T09:18:46.097Z,1.43
2018-04-30T09:21:15.960Z,1.57
2018-04-30T09:23:44.195Z,3.67
2018-04-30T09:26:13.209Z,1.10
2018-04-30T09:28:41.461Z,0.87
2018-04-30T09:31:10.515Z,1.33
2018-04-30T09:33:38.776Z,1.20
2018-04-30T09:36:07.066Z,1.10
2018-04-30T09:38:35.309Z,1.40
2018-04-30T09:41:03.623Z,3.53
2018-04-30T09:43:31.869Z,5.13
2018-04-30T09:46:00.901Z,2.77
2018-04-30T09:48:29.174Z,11.30
2018-04-30T09:50:57.450Z,2.00
2018-04-30T09:53:25.684Z,4.10
2018-04-30T09:55:53.975Z,3.10
2018-04-30T09:58:22.958Z,4.30
2018-04-30T10:00:51.242Z,3.83
2018-04-30T10:03:19.489Z,10.77
2018-04-30T10:05:47.755Z,4.20
2018-04-30T10:08:16.136Z,1.90
2018-04-30T10:10:44.353Z,2.80
2018-04-30T10:13:12.596Z,5.67
2018-04-30T10:15:41.657Z,1.70
2018-04-30T10:18:09.922Z,3.50
2018-04-30T10:20:38.194Z,1.50
2018-04-30T10:23:06.460Z,2.60
2018-04-30T10:25:35.112Z,1.40
2018-04-30T10:28:03.366Z,1.63
2018-04-30T10:30:31.651Z,3.67
2018-04-30T10:32:59.900Z,2.97
2018-04-30T10:35:28.180Z,7.93
2018-04-30T10:37:56.492Z,4.40
2018-04-30T10:40:24.732Z,1.80
2018-04-30T10:42:53.177Z,2.73
2018-04-30T10:45:22.342Z,3.07
2018-04-30T10:47:51.601Z,2.43
2018-04-30T10:50:20.983Z,2.93
2018-04-30T10:52:50.009Z,15.77
2018-04-30T10:55:18.273Z,3.07
2018-04-30T10:57:46.542Z,3.27
2018-04-30T11:00:15.608Z,2.07
2018-04-30T11:02:43.928Z,6.10
2018-04-30T11:05:14.143Z,1.47
2018-04-30T11:07:43.125Z,7.03
2018-04-30T11:10:11.407Z,4.43
2018-04-30T11:12:42.941Z,1.73
2018-04-30T11:15:11.173Z,6.73
2018-04-30T11:17:39.412Z,2.73
2018-04-30T11:20:08.436Z,1.77
2018-04-30T11:22:36.714Z,2.53
2018-04-30T11:25:04.957Z,1.17
2018-04-30T11:27:34.101Z,9.43
2018-04-30T11:30:02.259Z,9.20
2018-04-30T11:32:30.572Z,1.57
2018-04-30T11:34:58.835Z,30.53
2018-04-30T11:37:27.143Z,2.30
2018-04-30T11:39:55.510Z,1.40
2018-04-30T11:42:23.817Z,5.03
2018-04-30T11:44:52.824Z,1.80
2018-04-30T11:47:21.887Z,1.30
2018-04-30T11:49:50.953Z,4.60
2018-04-30T11:52:19.231Z,1.37
2018-04-30T11:54:47.545Z,1.33
2018-04-30T11:57:15.833Z,6.10
2018-04-30T11:59:45.646Z,2.70
2018-04-30T12:02:14.696Z,2.17
2018-04-30T12:04:43.004Z,5.33
2018-04-30T12:07:11.347Z,4.20
2018-04-30T12:09:39.613Z,1.93
2018-04-30T12:12:08.565Z,2.80
2018-04-30T12:14:37.955Z,5.40
2018-04-30T12:17:06.251Z,3.30
2018-04-30T12:19:34.990Z,4.13
2018-04-30T12:22:03.614Z,6.37
2018-04-30T12:24:32.644Z,3.50
2018-04-30T12:27:01.759Z,7.10
2018-04-30T12:29:29.986Z,3.10
2018-04-30T12:31:58.297Z,5.90
2018-04-30T12:34:26.577Z,1.47
2018-04-30T12:36:54.900Z,4.20
2018-04-30T12:39:23.222Z,1.70
2018-04-30T12:41:52.443Z,1.40
2018-04-30T12:44:20.683Z,1.67
2018-04-30T12:46:50.503Z,4.17
2018-04-30T12:49:19.623Z,1.33
2018-04-30T12:51:47.873Z,1.90
2018-04-30T12:54:18.021Z,3.60
2018-04-30T12:56:46.631Z,2.77
2018-04-30T12:59:14.949Z,1.60
2018-04-30T13:01:44.965Z,1.53
2018-04-30T13:04:15.233Z,2.43
2018-04-30T13:06:43.545Z,3.23
2018-04-30T13:09:11.910Z,8.83
2018-04-30T13:11:40.220Z,1.27
2018-04-30T13:14:08.528Z,1.50
2018-04-30T13:16:38.423Z,5.97
2018-04-30T13:19:06.705Z,1.33
2018-04-30T13:21:34.984Z,4.73
2018-04-30T13:24:03.887Z,3.60
2018-04-30T13:26:32.971Z,2.10
2018-04-30T13:29:01.243Z,6.30
2018-04-30T13:31:29.531Z,1.53
2018-04-30T13:33:58.593Z,1.53
2018-04-30T13:36:26.817Z,2.57
2018-04-30T13:38:55.168Z,3.13
2018-04-30T13:41:23.396Z,12.83
2018-04-30T13:43:51.708Z,6.73
2018-04-30T13:46:19.983Z,6.77
2018-04-30T13:48:48.262Z,1.80
2018-04-30T13:51:16.538Z,8.37
2018-04-30T13:53:44.981Z,7.00
2018-04-30T13:56:13.994Z,9.03
2018-04-30T13:58:42.280Z,2.00
2018-04-30T14:01:10.694Z,1.00
2018-04-30T14:03:38.961Z,25.60
2018-04-30T14:06:07.249Z,3.33
2018-04-30T14:08:35.543Z,4.60
2018-04-30T14:11:03.809Z,6.70
2018-04-30T14:13:34.320Z,0.80
2018-04-30T14:16:02.626Z,1.23
2018-04-30T14:18:32.247Z,1.03
2018-04-30T14:21:01.459Z,4.00
2018-04-30T14:23:31.224Z,1.00
2018-04-30T14:25:59.510Z,3.33
2018-04-30T14:28:28.555Z,2.07
2018-04-30T14:30:56.798Z,1.83
2018-04-30T14:33:25.821Z,3.23
2018-04-30T14:35:54.080Z,1.03
2018-04-30T14:38:22.453Z,8.80
2018-04-30T14:40:50.658Z,1.00
2018-04-30T14:43:18.938Z,1.50
2018-04-30T14:45:47.251Z,6.83
2018-04-30T14:48:15.723Z,6.83
2018-04-30T14:50:44.500Z,9.00
2018-04-30T14:53:12.925Z,6.73
2018-04-30T14:55:41.163Z,9.97
2018-04-30T14:58:09.523Z,2.00
2018-04-30T15:00:39.276Z,2.87
2018-04-30T15:03:07.580Z,13.03
2018-04-30T15:05:36.710Z,0.80
2018-04-30T15:08:05.536Z,4.20
2018-04-30T15:10:34.309Z,7.80
2018-04-30T15:13:03.673Z,9.33
2018-04-30T15:15:31.964Z,1.33
2018-04-30T15:18:00.226Z,0.70
2018-04-30T15:20:28.502Z,2.90
2018-04-30T15:22:57.705Z,4.63
2018-04-30T15:25:26.771Z,4.27
2018-04-30T15:27:55.777Z,2.67
2018-04-30T15:30:24.820Z,0.80
2018-04-30T15:32:53.978Z,6.10
2018-04-30T15:35:23.025Z,3.23
2018-04-30T15:37:51.385Z,1.23
2018-04-30T15:40:19.710Z,2.50
2018-04-30T15:42:50.001Z,0.90
2018-04-30T15:45:18.312Z,3.80
2018-04-30T15:47:47.500Z,1.10
2018-04-30T15:50:15.824Z,1.33
2018-04-30T15:52:44.125Z,1.03
2018-04-30T15:55:12.444Z,3.27
2018-04-30T15:57:40.714Z,0.80
2018-04-30T16:00:09.101Z,3.03
2018-04-30T16:02:38.033Z,1.97
2018-04-30T16:05:08.284Z,1.10
2018-04-30T16:07:37.069Z,0.80
2018-04-30T16:10:08.381Z,1.87
2018-04-30T16:12:38.093Z,6.77
2018-04-30T16:15:07.287Z,0.70
2018-04-30T16:17:38.330Z,8.40
2018-04-30T16:20:10.370Z,3.30
2018-04-30T16:22:39.338Z,0.80
2018-04-30T16:25:08.477Z,1.30
2018-04-30T16:27:36.856Z,1.20
2018-04-30T16:30:06.013Z,9.07
2018-04-30T16:32:36.299Z,5.80
2018-04-30T16:35:05.670Z,2.40
2018-04-30T16:37:35.953Z,0.80
2018-04-30T16:40:04.287Z,3.70
2018-04-30T16:42:32.632Z,0.77
2018-04-30T16:45:01.928Z,0.87
2018-04-30T16:47:30.158Z,1.40
2018-04-30T16:49:59.189Z,1.20
2018-04-30T16:52:27.457Z,2.13
2018-04-30T16:54:55.810Z,1.07
2018-04-30T16:57:24.897Z,1.43
2018-04-30T16:59:55.947Z,0.93
2018-04-30T17:02:24.876Z,1.00
2018-04-30T17:04:54.600Z,2.63
2018-04-30T17:07:23.011Z,2.37
2018-04-30T17:09:51.596Z,2.03
2018-04-30T17:12:20.180Z,3.00
2018-04-30T17:14:48.571Z,1.70
2018-04-30T17:17:17.327Z,1.57
2018-04-30T17:19:45.653Z,1.20
2018-04-30T17:22:15.383Z,1.40
2018-04-30T17:24:43.642Z,2.00
2018-04-30T17:27:12.515Z,1.57
2018-04-30T17:29:40.882Z,3.20
2018-04-30T17:32:09.153Z,6.70
2018-04-30T17:34:38.007Z,1.30
2018-04-30T17:37:06.329Z,2.17
2018-04-30T17:39:34.629Z,1.63
2018-04-30T17:42:02.924Z,4.10
2018-04-30T17:44:33.299Z,2.10
2018-04-30T17:47:01.815Z,9.73
2018-04-30T17:49:31.027Z,1.60
2018-04-30T17:51:59.426Z,2.33
2018-04-30T17:54:28.517Z,1.13
2018-04-30T17:56:57.888Z,0.80
2018-04-30T17:59:26.167Z,1.27
2018-04-30T18:01:55.144Z,1.00
2018-04-30T18:04:26.823Z,1.40
2018-04-30T18:06:55.304Z,1.40
2018-04-30T18:09:23.768Z,1.10
2018-04-30T18:11:52.399Z,1.00
2018-04-30T18:14:20.661Z,2.20
2018-04-30T18:16:50.968Z,0.90
2018-04-30T18:19:20.357Z,0.80
2018-04-30T18:21:48.629Z,3.37
2018-04-30T18:24:18.542Z,1.20
2018-04-30T18:26:47.321Z,4.30
2018-04-30T18:29:16.329Z,1.20
2018-04-30T18:31:45.656Z,7.67
2018-04-30T18:34:16.899Z,1.37
2018-04-30T18:36:46.065Z,5.00
2018-04-30T18:39:15.466Z,0.70
2018-04-30T18:41:44.205Z,1.00
2018-04-30T18:44:13.412Z,1.10
2018-04-30T18:46:42.527Z,1.57
2018-04-30T18:49:10.979Z,0.70
2018-04-30T18:51:39.266Z,1.03
2018-04-30T18:54:08.669Z,0.90
2018-04-30T18:56:36.898Z,0.83
2018-04-30T18:59:05.291Z,1.10
2018-04-30T19:01:35.998Z,1.20
2018-04-30T19:04:04.337Z,4.47
2018-04-30T19:06:34.119Z,1.03
2018-04-30T19:09:02.403Z,0.93
2018-04-30T19:11:31.060Z,3.23
2018-04-30T19:13:59.962Z,1.00
2018-04-30T19:16:29.069Z,0.83
2018-04-30T19:18:57.409Z,1.10
2018-04-30T19:21:26.680Z,4.30
2018-04-30T19:23:55.812Z,0.83
2018-04-30T19:26:24.255Z,1.10
2018-04-30T19:28:53.057Z,8.40
2018-04-30T19:31:23.462Z,1.57
2018-04-30T19:33:52.835Z,1.20
2018-04-30T19:36:21.091Z,2.77
2018-04-30T19:38:49.410Z,7.00
2018-04-30T19:41:17.711Z,1.90
2018-04-30T19:43:46.037Z,1.03
2018-04-30T19:46:15.079Z,1.23
2018-04-30T19:48:43.424Z,1.53
2018-04-30T19:51:13.170Z,2.23
2018-04-30T19:53:41.435Z,1.50
2018-04-30T19:56:09.887Z,4.10
2018-04-30T19:58:38.187Z,0.97
2018-04-30T20:01:06.490Z,2.23
2018-04-30T20:03:34.891Z,1.10
2018-04-30T20:06:04.070Z,1.20
2018-04-30T20:08:32.641Z,3.50
2018-04-30T20:11:00.936Z,1.50
2018-04-30T20:13:30.107Z,1.10
2018-04-30T20:16:00.304Z,0.70
2018-04-30T20:18:28.622Z,1.30
2018-04-30T20:20:57.711Z,3.80
2018-04-30T20:23:26.112Z,8.40
2018-04-30T20:25:55.056Z,7.53
2018-04-30T20:28:23.405Z,0.90
2018-04-30T20:30:51.678Z,1.23
2018-04-30T20:33:20.701Z,0.90
2018-04-30T20:35:49.024Z,2.40
2018-04-30T20:38:17.317Z,1.20
2018-04-30T20:40:45.731Z,1.17
2018-04-30T20:43:14.853Z,1.33
2018-04-30T20:45:43.158Z,1.80
2018-04-30T20:48:11.512Z,5.20
2018-04-30T20:50:39.821Z,2.50
2018-04-30T20:53:08.070Z,2.03
2018-04-30T20:55:36.341Z,1.77
2018-04-30T20:58:05.522Z,0.80
2018-04-30T21:00:33.889Z,1.63
2018-04-30T21:03:02.118Z,0.90
2018-04-30T21:05:30.423Z,1.17
2018-04-30T21:07:59.462Z,0.90
2018-04-30T21:10:27.784Z,0.73
2018-04-30T21:12:56.049Z,0.90
2018-04-30T21:15:24.719Z,0.80
2018-04-30T21:17:52.988Z,0.80
2018-04-30T21:20:21.264Z,11.20
2018-04-30T21:22:49.565Z,0.73
2018-04-30T21:25:18.134Z,5.63
2018-04-30T21:27:46.430Z,2.03
2018-04-30T21:30:14.709Z,1.07
2018-04-30T21:32:42.962Z,12.00
2018-04-30T21:35:11.219Z,2.10
2018-04-30T21:37:39.459Z,0.80
2018-04-30T21:40:08.559Z,4.10
2018-04-30T21:42:36.748Z,0.80
2018-04-30T21:45:05.052Z,0.87
2018-04-30T21:47:33.322Z,0.70
2018-04-30T21:50:01.582Z,1.57
2018-04-30T21:52:30.628Z,1.10
2018-04-30T21:54:59.102Z,0.70
2018-04-30T21:57:27.664Z,0.80
2018-04-30T21:59:55.965Z,0.93
2018-04-30T22:02:24.223Z,0.70
2018-04-30T22:04:52.533Z,0.77
2018-04-30T22:07:20.798Z,1.10
2018-04-30T22:09:49.042Z,0.77
2018-04-30T22:12:17.384Z,0.80
2018-04-30T22:14:46.917Z,1.10
2018-04-30T22:17:15.590Z,0.70
2018-04-30T22:19:44.594Z,0.80
2018-04-30T22:22:14.199Z,1.00
2018-04-30T22:24:42.393Z,0.73
2018-04-30T22:27:10.684Z,0.67
2018-04-30T22:29:38.933Z,4.07
2018-04-30T22:32:07.292Z,4.07
2018-04-30T22:34:36.340Z,2.87
2018-04-30T22:37:04.591Z,1.10
2018-04-30T22:39:32.877Z,1.13
2018-04-30T22:42:01.155Z,0.90
2018-04-30T22:44:29.645Z,0.70
2018-04-30T22:46:58.020Z,0.80
2018-04-30T22:49:26.271Z,0.80
2018-04-30T22:51:55.328Z,2.50
2018-04-30T22:54:23.641Z,0.60
2018-04-30T22:56:53.251Z,1.00
2018-04-30T22:59:22.272Z,0.90
2018-04-30T23:01:51.633Z,0.70
2018-04-30T23:04:19.880Z,0.90
2018-04-30T23:06:49.057Z,1.00
2018-04-30T23:09:17.649Z,1.00
2018-04-30T23:11:46.104Z,0.90
2018-04-30T23:14:15.130Z,1.03
2018-04-30T23:16:43.396Z,1.67
2018-04-30T23:19:11.680Z,1.20
2018-04-30T23:21:40.818Z,8.43
2018-04-30T23:24:09.897Z,5.90
2018-04-30T23:26:38.220Z,1.30
2018-04-30T23:29:07.230Z,1.10
2018-04-30T23:31:35.512Z,0.80
2018-04-30T23:34:04.496Z,1.47
2018-04-30T23:36:33.560Z,1.17
2018-04-30T23:39:01.821Z,4.10
2018-04-30T23:41:30.916Z,0.93
2018-04-30T23:43:59.409Z,1.10
2018-04-30T23:46:27.728Z,0.90
2018-04-30T23:48:55.966Z,0.70
2018-04-30T23:51:24.242Z,0.90
2018-04-30T23:53:53.421Z,1.10
2018-04-30T23:56:23.085Z,1.53
2018-04-30T23:58:52.102Z,0.80
